Ana Sayfa
METAR-TAF:

METAR-TAF

Havaalanları :

Missoula, Montana, Amerika Birleşik Devletleri

Enlem: 46-55-15N, Boylam: 114-05-33W, yükseklik: 975 m

Güncel hava durumu gözlemi

Rapor saat 18:53 UTC de 1 saat ve 3 dakika önce yapıldı.
Rüzgar batı/güneybatıdan 8 kt ve 15 kt'a kadar ani rüzgarlar
Sıcaklık 11°C
Nem 30%
Basınç 1020 hPa
Görüş mesafesi: 16.1 km
8500 ft yükseklikte parçalı bulutlu

METAR: KMSO 211853Z 25008G15KT 10SM SCT085 11/M06 A3011 RMK AO2 SLP206 T01111061

Saat: 13:56 (19:56 UTC)

Tahmin

Rapor saat 17:20 UTC de 2 saat ve 36 dakika önce yapıldı.
Ayın 21'si saat 18 UTC'den ayın 22'si saat 18 UTC'ye kadar geçerli Tahmin
Rüzgar batıdan 16 kt ve 26 kt'a kadar ani rüzgarlar
Görüş mesafesi: 10 km
8000 ft yükseklikte parçalı çok bulutlu
Ayın 22'si saat 0200 UTC'den
Rüzgar kuzeybatıdan 9 kt
Görüş mesafesi: 10 km
25000 ft yükseklikte parçalı bulutlu

TAF: KMSO 211720Z 2118/2218 28016G26KT P6SM BKN080 FM220200 31009KT P6SM SCT250

4.000'den fazla havaalanı için hava durumu gözlemleri ve tahminleri (METAR ve TAF raporları).

Kullanılabilir istasyonlar harita üzerinde sarı ve kırmızı noktalarla gösterilir.

İstasyonun adını görmek için fareyi noktanın üzerinde gezdirin.

Sonrasında hava gözlem ve tahminlerini görmek için tıklayın.

Haritayı değiştirmek için: yaklaştırmak için siyah artı işaretli yeşil düğmeye ve uzaklaştırmak için de eksi işaretli düğmeye hızla tıklayın; bitişik haritalar için yeşil okları kullanın.


METAR-TAF: